To NAV CANADA Home Page Login to a new session Search on AWWS site Feedback and Comments Disclaimer Vers la page française équivalente Tips FAQ What's new on the site To the Forecasts and Observations / NOTAM section To "File a Flight Plan" website Publications and other links Update of the User's profile FIC Telephone Numbers My Weather Data Folder Route Weather Data Regional Weather Data Local Weather Data To the Forecasts and Observations / NOTAM section
Request Generated 04/30/2017 at 05:00:53 UTC . Weather information available at that time is displayed.

METAR/TAF

MONT-JOLI/QC    

METAR CYYY 300400Z 31017KT 30SM SKC 02/M04 A3007 RMK SLP186=
METAR CYYY 300300Z 30014G20KT 30SM FEW090 02/M03 A3004 RMK AC1
SLP178=
METAR CYYY 300200Z 30016G23KT 30SM FEW060 FEW090 02/M02 A3001 RMK
SC1AC1 SLP167=

TAF CYYY 300138Z 3002/3014 30015G25KT P6SM SCT050 BKN090
FM300500 32012G22KT P6SM FEW050
BECMG 3010/3012 32012KT
RMK NXT FCST BY 300800Z=
Your time UTC time
Weather data provided by Environment Canada and NAV CANADA